• Join FlightAware (Why Join?)
  • Login
  • US Flag 
09:30AM EDT


 

Airport Tracker/Info


-or-


 

Live Flight TrackerFlight Track Log ✈ LBQ652 ✈ 02-May-2013 ✈ KPTK - KDPA

Flight Track Log - Related Links

Times and Time Zones

All times are in EDT time to prevent confusion due to time zone crossing. See the LBQ652 flight status page for this flight to view local times or setup timezone preferences in your user account.

Time Position Orientation Groundspeed Altitude Reporting Facility
EDT Latitude Longitude Course Direction KTS MPH feet Rate Location/Type
02:40AM 42.5403 -84.1178 259° West 304 350 14,100  Level Chicago Center
02:40AM 42.5289 -84.1814 256° West 310 357 14,900 1,560 Climbing Cleveland Center
02:41AM 42.5128 -84.2989 260° West 316 364 16,500 1,440 Climbing Cleveland Center
02:43AM 42.5864 -83.9984 260° West  Level Estimated
02:44AM 42.5729 -84.0945 259° West  Level Estimated
02:44AM 42.4742 -84.5894 260° West 319 367 20,000  Level Chicago Center
02:45AM 42.5593 -84.1907 259° West  Level Estimated
02:45AM 42.4586 -84.7083 260° West 321 369 21,000  Level Chicago Center
02:46AM 42.4414 -84.8322 259° West 329 379 22,200 1,200 Climbing Chicago Center
02:47AM 42.4244 -84.9525 259° West 328 377 23,500 1,200 Climbing Chicago Center
02:48AM 42.4072 -85.0725 259° West 327 376 24,700 1,140 Climbing Chicago Center
02:49AM 42.3900 -85.1917 259° West 324 373 25,800 600 Climbing Chicago Center
02:50AM 42.3725 -85.3172 259° West 337 388 26,000 60 Climbing Chicago Center
02:51AM 42.3528 -85.4472 258° West 350 403 26,000  Level Chicago Center
02:52AM 42.3342 -85.5794 259° West 357 411 26,000  Level Chicago Center
02:53AM 42.3186 -85.6839 259° West 356 410 26,000  Level Chicago Center
02:54AM 42.2981 -85.8169 258° West 359 413 26,000  Level Chicago Center
02:55AM 42.2772 -85.9628 259° West 364 419 26,000  Level Chicago Center
02:56AM 42.2567 -86.0947 258° West 363 418 26,000  Level Chicago Center
02:57AM 42.2358 -86.2267 258° West 361 415 26,000  Level Chicago Center
02:58AM 42.2158 -86.3575 258° West 359 413 26,000  Level Chicago Center
02:59AM 42.1953 -86.4875 258° West 357 411 26,000  Level Chicago Center
03:00AM 42.1747 -86.6178 258° West 356 410 26,000  Level Chicago Center
03:01AM 42.1547 -86.7550 259° West 353 406 26,000  Level Chicago Center
03:02AM 42.1344 -86.8847 258° West 355 409 26,000  Level Chicago Center
03:03AM 42.1131 -87.0139 257° West 358 412 26,000  Level Chicago Center
03:04AM 42.0922 -87.1406 258° West 351 404 26,000  Level Chicago Center
03:05AM 42.0711 -87.2711 258° West 357 411 26,000 -1,680 Level Chicago Center
03:06AM 42.0500 -87.3833 256° West 351 404 23,100 -3,840 Descending Chicago TRACON
03:07AM 42.0333 -87.5167 260° West 348 400 19,200 -3,840 Descending Chicago TRACON
03:08AM 42.0167 -87.6333 259° West 337 388 15,500 -3,840 Descending Chicago TRACON
03:09AM 41.9833 -87.7500 249° West 329 379 11,600 -3,720 Descending Chicago TRACON
03:10AM 41.9667 -87.8667 259° West 318 366 8,100 -2,820 Descending Chicago TRACON
03:11AM 41.9667 -87.9667 270° West 309 356 6,000 -1,440 Descending Chicago TRACON
03:12AM 41.9667 -88.0667 270° West 245 282 5,200 -960 Descending Chicago TRACON
03:13AM 41.9667 -88.1500 270° West 210 242 4,100 -1,260 Descending Chicago TRACON
03:14AM 41.9667 -88.2167 270° West 147 169 2,600 -1,260 Descending Chicago TRACON
03:15AM 41.9500 -88.2333 217° Southwest 125 144 1,500 -780 Descending Chicago TRACON
03:16AM 41.9047 -88.2500 195° South 140 161 1,000 -480 Descending Chicago Center
03:18AM 41.9071 -88.2480 90° East  Level Estimated